Ahoskie, North Carolina
Current Conditions -  °F | °C
As of 8:55 AM on Thursday 23 Oct 2014 (Local Time) from KASJ Reporting Station
Clear Clear  
Wind Chill: 51°   Ceiling: Unl
Heat Index: 51°   Visibility: 10mi
Dew Point: 42°   Wind: 5mph
Humidity: 71%   Direction: 320°NW
Pressure: 29.98"   Gusts: NA
Location:  36.29°N, 76.98°W
Report Text: KASJ 231255Z AUTO 32004KT 10SM CLR 11/05 A2998 RMK AO2 T01050054
Loading
Personal Weather Stations






























Interactive Weather Map
Tropical Storm Tracking
New forecast layout! Learn more

10-Day Weather Forecast

Advertisements
Track Severe Weather on mobile